Time;durP1;ratioP1;P1;durP2;ratioP2;P2;SDS_P1;SDS_P2;PMS_P1;PMS_P2;Temp;Humidity;BMP_temperature;BMP_pressure;BME280_temperature;BME280_humidity;BME280_pressure;Samples;Min_cycle;Max_cycle;Signal;HPM_P1;HPM_P2
2023/04/12 00:01:37;;;;;;;;;;;;;;;12.86;90.95;97862.25;5056201;28;19920;-59
2023/04/12 00:04:03;;;;;;;;;;;;;;;12.90;90.98;97860.88;5060963;28;19925;-59
2023/04/12 00:06:31;;;;;;;;;;;;;;;12.91;90.84;97857.31;5056784;28;19920;-59
2023/04/12 00:08:57;;;;;;;;;;;;;;;12.94;90.10;97854.34;5065653;28;19972;-59
2023/04/12 00:11:22;;;;;;;;;;;;;;;12.78;91.26;97847.47;5061414;28;19921;-59
2023/04/12 00:13:48;;;;;;;;;;;;;;;12.72;91.94;97844.75;5019063;28;19921;-59
2023/04/12 00:16:15;;;;;;;;;;;;;;;12.78;91.27;97842.25;5060872;28;20699;-60
2023/04/12 00:18:41;;;;;;;;;;;;;;;12.76;91.63;97838.19;5024443;28;19925;-60
2023/04/12 00:21:07;;;;;;;;;;;;;;;12.76;90.99;97835.59;5046316;28;20331;-60
2023/04/12 00:23:32;;;;;;;;;;;;;;;12.55;91.93;97824.03;5045653;28;20620;-60
2023/04/12 00:25:58;;;;;;;;;;;;;;;12.37;93.16;97831.38;5033336;28;19921;-59
2023/04/12 00:28:23;;;;;;;;;;;;;;;12.45;92.59;97839.13;5026027;28;19964;-59
2023/04/12 00:30:49;;;;;;;;;;;;;;;12.44;92.88;97835.69;5029768;28;20465;-59
2023/04/12 00:33:14;;;;;;;;;;;;;;;12.52;92.24;97845.25;5061034;28;20661;-60
2023/04/12 00:35:39;;;;;;;;;;;;;;;12.62;91.66;97839.81;5042516;28;20477;-60
2023/04/12 00:38:09;;;;;;;;;;;;;;;12.60;91.13;97836.56;5039406;28;19952;-59
2023/04/12 00:40:34;;;;;;;;;;;;;;;12.61;91.43;97836.38;5043344;28;19935;-60
2023/04/12 00:42:59;;;;;;;;;;;;;;;12.61;91.05;97828.56;5036478;28;19920;-60
2023/04/12 00:45:25;;;;;;;;;;;;;;;12.67;90.73;97827.03;5058809;28;19929;-59
2023/04/12 00:47:50;;;;;;;;;;;;;;;12.72;90.48;97826.50;5041791;28;20353;-60
2023/04/12 00:50:15;;;;;;;;;;;;;;;12.73;89.88;97830.75;5042528;28;19927;-59
2023/04/12 00:52:40;;;;;;;;;;;;;;;12.62;90.86;97829.38;5042869;28;19943;-59
2023/04/12 00:55:08;;;;;;;;;;;;;;;12.64;90.79;97827.41;5044700;28;20219;-60
2023/04/12 00:57:35;;;;;;;;;;;;;;;12.60;91.65;97836.56;5027086;28;19920;-60
2023/04/12 01:00:03;;;;;;;;;;;;;;;12.58;91.72;97833.31;5036368;28;19921;-60
2023/04/12 01:02:29;;;;;;;;;;;;;;;12.52;92.15;97827.00;5041392;28;19926;-60
2023/04/12 01:04:57;;;;;;;;;;;;;;;12.62;91.44;97826.75;5047567;28;19924;-59
2023/04/12 01:07:33;;;;;;;;;;;;;;;12.61;91.33;97825.13;5046633;28;20003;-60
2023/04/12 01:10:13;;;;;;;;;;;;;;;12.62;91.60;97829.38;5042868;28;20021;-60
2023/04/12 01:12:48;;;;;;;;;;;;;;;12.60;91.71;97829.53;5055365;28;19923;-60
2023/04/12 01:15:13;;;;;;;;;;;;;;;12.64;91.69;97825.59;5039516;28;20070;-60
2023/04/12 01:17:56;;;;;;;;;;;;;;;12.71;91.69;97828.31;5044427;28;20015;-60
2023/04/12 01:20:32;;;;;;;;;;;;;;;12.73;90.88;97830.75;5017876;28;20027;-59
2023/04/12 01:23:16;;;;;;;;;;;;;;;12.72;91.11;97827.31;5055141;28;19920;-60
2023/04/12 01:25:44;;;;;;;;;;;;;;;12.60;90.39;97803.47;5060167;28;20398;-60
2023/04/12 01:28:11;;;;;;;;;;;;;;;12.71;90.12;97832.72;5074525;28;19924;-60
2023/04/12 01:30:38;;;;;;;;;;;;;;;12.75;90.65;97831.38;5051124;28;19917;-60
2023/04/12 01:33:06;;;;;;;;;;;;;;;12.79;90.12;97833.44;5057117;28;20470;-59
2023/04/12 01:35:32;;;;;;;;;;;;;;;12.84;91.10;97844.16;5026985;28;20282;-60
2023/04/12 01:37:58;;;;;;;;;;;;;;;12.91;90.09;97846.88;5063213;28;19916;-59
2023/04/12 01:40:23;;;;;;;;;;;;;;;12.78;90.63;97846.69;5048759;28;19917;-60
2023/04/12 01:42:51;;;;;;;;;;;;;;;12.81;90.79;97838.47;5050308;28;20026;-59
2023/04/12 01:45:18;;;;;;;;;;;;;;;12.85;91.24;97835.34;5029109;28;19931;-60
2023/04/12 01:47:43;;;;;;;;;;;;;;;12.86;91.01;97833.53;5067372;28;20649;-59
2023/04/12 01:50:12;;;;;;;;;;;;;;;12.75;91.69;97832.19;5067578;28;19928;-59
2023/04/12 01:52:39;;;;;;;;;;;;;;;12.60;92.28;97832.16;5062928;28;19963;-59
2023/04/12 01:55:05;;;;;;;;;;;;;;;12.53;93.21;97823.41;5066455;28;19921;-63
2023/04/12 01:57:30;;;;;;;;;;;;;;;12.33;93.86;97822.28;5078214;28;19995;-60
2023/04/12 01:59:55;;;;;;;;;;;;;;;12.21;94.81;97819.25;5035107;28;19920;-59
2023/04/12 02:02:21;;;;;;;;;;;;;;;12.08;95.72;97819.84;5043876;28;19955;-59
2023/04/12 02:04:48;;;;;;;;;;;;;;;12.04;96.59;97832.41;5040949;28;19929;-59
2023/04/12 02:07:17;;;;;;;;;;;;;;;12.16;95.46;97832.81;5046201;28;20043;-60
2023/04/12 02:09:43;;;;;;;;;;;;;;;12.25;95.27;97828.38;5046823;28;19927;-60
2023/04/12 02:12:11;;;;;;;;;;;;;;;12.26;95.03;97822.97;5046925;28;19917;-59
2023/04/12 02:14:37;;;;;;;;;;;;;;;12.40;94.04;97816.19;5056990;28;19920;-60
2023/04/12 02:17:04;;;;;;;;;;;;;;;12.42;93.94;97806.38;5065063;28;19927;-60
2023/04/12 02:19:31;;;;;;;;;;;;;;;12.39;94.31;97805.94;5064577;28;19929;-60
2023/04/12 02:21:56;;;;;;;;;;;;;;;12.43;94.43;97805.41;5043944;28;19944;-59
2023/04/12 02:24:21;;;;;;;;;;;;;;;12.46;94.35;97809.44;5053441;28;20367;-59
2023/04/12 02:26:48;;;;;;;;;;;;;;;12.49;94.79;97811.72;5027654;28;19931;-60
2023/04/12 02:29:14;;;;;;;;;;;;;;;12.37;95.04;97805.28;5050914;28;20719;-60
2023/04/12 02:31:40;;;;;;;;;;;;;;;12.40;94.84;97810.97;5028597;28;20007;-59
2023/04/12 02:34:05;;;;;;;;;;;;;;;12.16;95.48;97780.72;5049757;28;20378;-60
2023/04/12 02:36:31;;;;;;;;;;;;;;;12.37;95.90;97807.91;5028273;28;19966;-60
2023/04/12 02:38:56;;;;;;;;;;;;;;;12.11;98.04;97812.47;5082150;28;20653;-60
2023/04/12 02:41:22;;;;;;;;;;;;;;;12.30;96.55;97807.78;5060161;28;20023;-59
2023/04/12 02:43:47;;;;;;;;;;;;;;;12.31;96.49;97805.00;5044577;28;19928;-60
2023/04/12 02:46:21;;;;;;;;;;;;;;;12.35;96.38;97804.66;5029619;28;19936;-60
2023/04/12 02:48:46;;;;;;;;;;;;;;;12.38;96.43;97814.75;5077138;28;19994;-60
2023/04/12 02:51:11;;;;;;;;;;;;;;;12.34;97.17;97819.50;5031560;28;20317;-60
2023/04/12 02:53:37;;;;;;;;;;;;;;;12.17;97.94;97823.19;5064627;28;19994;-60
2023/04/12 02:56:03;;;;;;;;;;;;;;;12.18;98.82;97817.81;5048351;28;19924;-59
2023/04/12 02:58:32;;;;;;;;;;;;;;;12.12;99.26;97821.13;5063500;28;19916;-60
2023/04/12 03:00:58;;;;;;;;;;;;;;;12.21;98.45;97827.06;5063440;28;20290;-60
2023/04/12 03:03:24;;;;;;;;;;;;;;;12.23;98.38;97823.31;5026086;28;19920;-59
2023/04/12 03:05:53;;;;;;;;;;;;;;;12.30;98.37;97818.22;5027862;28;19921;-59
2023/04/12 03:08:21;;;;;;;;;;;;;;;12.30;98.26;97815.59;5044703;28;20446;-60
2023/04/12 03:10:46;;;;;;;;;;;;;;;12.35;98.75;97810.69;5028269;28;19952;-59
2023/04/12 03:13:11;;;;;;;;;;;;;;;12.26;100.00;97811.72;5064222;28;19967;-60
2023/04/12 03:15:37;;;;;;;;;;;;;;;12.17;100.00;97816.19;5041465;28;19958;-60
2023/04/12 03:18:02;;;;;;;;;;;;;;;11.98;100.00;97817.47;5062110;28;19966;-60
2023/04/12 03:20:27;;;;;;;;;;;;;;;11.97;100.00;97817.63;5059807;28;20226;-59
2023/04/12 03:22:53;;;;;;;;;;;;;;;11.90;100.00;97817.50;5043602;28;19924;-59
2023/04/12 03:25:18;;;;;;;;;;;;;;;11.91;100.00;97813.94;5045863;28;19920;-59
2023/04/12 03:27:43;;;;;;;;;;;;;;;11.94;100.00;97813.59;5036504;28;19935;-59
2023/04/12 03:30:11;;;;;;;;;;;;;;;11.97;100.00;97808.03;5053420;28;20359;-60
2023/04/12 03:32:43;;;;;;;;;;;;;;;12.10;100.00;97799.63;5025355;28;19921;-59
2023/04/12 03:35:09;;;;;;;;;;;;;;;12.04;100.00;97800.34;5058383;28;20405;-60
2023/04/12 03:37:34;;;;;;;;;;;;;;;12.04;100.00;97798.53;5034180;28;20399;-60
2023/04/12 03:39:59;;;;;;;;;;;;;;;12.04;100.00;97806.34;5061509;28;20023;-60
2023/04/12 03:42:27;;;;;;;;;;;;;;;12.09;100.00;97811.84;5080485;28;19920;-60
2023/04/12 03:44:52;;;;;;;;;;;;;;;12.06;100.00;97817.41;5059480;28;19920;-59
2023/04/12 03:47:20;;;;;;;;;;;;;;;12.12;100.00;97810.72;5042431;28;19928;-60
2023/04/12 03:49:46;;;;;;;;;;;;;;;12.12;100.00;97800.28;5056298;28;19916;-59
2023/04/12 03:52:11;;;;;;;;;;;;;;;12.04;100.00;97806.34;5026707;28;19986;-59
2023/04/12 03:54:36;;;;;;;;;;;;;;;12.09;100.00;97801.44;5042837;28;19917;-60
2023/04/12 03:57:02;;;;;;;;;;;;;;;12.17;100.00;97810.19;5062778;28;19917;-60
2023/04/12 03:59:28;;;;;;;;;;;;;;;12.23;100.00;97809.47;5064356;28;20019;-60
2023/04/12 04:01:56;;;;;;;;;;;;;;;12.33;100.00;97807.44;5043331;28;19927;-60
2023/04/12 04:04:22;;;;;;;;;;;;;;;12.39;100.00;97801.50;5044551;28;20299;-60
2023/04/12 04:06:47;;;;;;;;;;;;;;;12.41;100.00;97816.97;5062954;28;19947;-60
2023/04/12 04:09:13;;;;;;;;;;;;;;;12.39;100.00;97809.34;5042207;28;19916;-60
2023/04/12 04:11:38;;;;;;;;;;;;;;;12.40;100.00;97813.56;5046994;28;20381;-59
2023/04/12 04:14:03;;;;;;;;;;;;;;;12.42;100.00;97802.97;5044778;28;19974;-59
2023/04/12 04:16:31;;;;;;;;;;;;;;;12.47;100.00;97813.69;5042770;28;20602;-59
2023/04/12 04:18:59;;;;;;;;;;;;;;;12.40;100.00;97805.75;5038090;28;19927;-59
2023/04/12 04:21:25;;;;;;;;;;;;;;;12.43;100.00;97801.97;5062288;28;20581;-59
2023/04/12 04:23:51;;;;;;;;;;;;;;;12.37;100.00;97803.50;5033076;28;20032;-60
2023/04/12 04:26:16;;;;;;;;;;;;;;;12.26;100.00;97803.91;5063671;28;20007;-59
2023/04/12 04:28:44;;;;;;;;;;;;;;;12.39;100.00;97809.34;5031376;28;19927;-60
2023/04/12 04:31:12;;;;;;;;;;;;;;;12.44;100.00;97809.63;5034102;28;19920;-59
2023/04/12 04:33:40;;;;;;;;;;;;;;;12.56;100.00;97817.00;5029723;28;19928;-59
2023/04/12 04:36:08;;;;;;;;;;;;;;;12.47;100.00;97813.69;5045734;28;20421;-60
2023/04/12 04:38:34;;;;;;;;;;;;;;;12.46;100.00;97818.06;5045068;28;19931;-60
2023/04/12 04:41:03;;;;;;;;;;;;;;;12.33;100.00;97812.66;5042252;28;19921;-60
2023/04/12 04:43:32;;;;;;;;;;;;;;;12.37;100.00;97821.75;5034855;28;19924;-59
2023/04/12 04:46:01;;;;;;;;;;;;;;;12.33;100.00;97819.66;5072269;28;19921;-59
2023/04/12 04:48:28;;;;;;;;;;;;;;;12.24;100.00;97832.75;5093254;28;21842;-59
2023/04/12 04:50:54;;;;;;;;;;;;;;;12.18;100.00;97830.06;5085071;28;20086;-59
2023/04/12 04:53:20;;;;;;;;;;;;;;;12.20;100.00;97828.06;5045174;28;20015;-60
2023/04/12 04:55:46;;;;;;;;;;;;;;;12.19;100.00;97835.06;5060092;28;20582;-60
2023/04/12 04:58:15;;;;;;;;;;;;;;;12.22;100.00;97837.34;5059554;28;19945;-60
2023/04/12 05:00:43;;;;;;;;;;;;;;;12.14;100.00;97823.53;5080631;28;19931;-60
2023/04/12 05:03:08;;;;;;;;;;;;;;;12.21;100.00;97827.06;5070266;28;19916;-60
2023/04/12 05:05:34;;;;;;;;;;;;;;;12.06;100.00;97827.81;5085636;28;20689;-59
2023/04/12 05:08:00;;;;;;;;;;;;;;;12.23;100.00;97823.31;5070217;28;19924;-60
2023/04/12 05:10:25;;;;;;;;;;;;;;;12.13;98.95;97825.34;5078225;28;20011;-60
2023/04/12 05:12:50;;;;;;;;;;;;;;;12.18;98.39;97830.06;5068409;28;20454;-60
2023/04/12 05:15:15;;;;;;;;;;;;;;;12.08;99.65;97828.50;5065397;28;19920;-59
2023/04/12 05:17:43;;;;;;;;;;;;;;;11.72;91.19;97792.53;5050548;28;20000;-59
2023/04/12 05:20:12;;;;;;;;;;;;;;;12.01;86.24;97826.72;5088775;28;19946;-59
2023/04/12 05:22:37;;;;;;;;;;;;;;;11.96;82.87;97832.47;5082704;28;19942;-59
2023/04/12 05:25:02;;;;;;;;;;;;;;;12.09;79.73;97835.31;5071258;28;19927;-59
2023/04/12 05:27:31;;;;;;;;;;;;;;;12.07;79.46;97832.06;5066942;28;20302;-59
2023/04/12 05:29:56;;;;;;;;;;;;;;;12.07;77.97;97834.66;5068478;28;19959;-60
2023/04/12 05:32:23;;;;;;;;;;;;;;;12.05;76.79;97836.63;5086370;28;19960;-59
2023/04/12 05:34:49;;;;;;;;;;;;;;;12.00;75.30;97836.34;5068394;28;20382;-59
2023/04/12 05:37:14;;;;;;;;;;;;;;;12.06;75.20;97834.84;5077334;28;19920;-59
2023/04/12 05:39:39;;;;;;;;;;;;;;;12.16;76.32;97834.63;5066524;28;19927;-59
2023/04/12 05:42:07;;;;;;;;;;;;;;;12.16;75.15;97839.84;5048094;28;19928;-60
2023/04/12 05:44:38;;;;;;;;;;;;;;;12.08;71.84;97840.69;5066112;28;19924;-59
2023/04/12 05:47:04;;;;;;;;;;;;;;;12.08;71.25;97848.50;5046660;28;19924;-59
2023/04/12 05:49:32;;;;;;;;;;;;;;;12.09;70.12;97850.94;5041201;28;19921;-60
2023/04/12 05:51:57;;;;;;;;;;;;;;;12.01;67.16;97855.38;5067533;28;19932;-59
2023/04/12 05:54:24;;;;;;;;;;;;;;;12.11;68.62;97854.19;5046735;28;19916;-59
2023/04/12 05:56:50;;;;;;;;;;;;;;;12.12;68.30;97847.19;5055763;28;20302;-59
2023/04/12 05:59:17;;;;;;;;;;;;;;;12.21;69.61;97847.94;5043942;28;19920;-59
2023/04/12 06:01:45;;;;;;;;;;;;;;;12.10;69.94;97841.31;5051675;28;19963;-59
2023/04/12 06:04:10;;;;;;;;;;;;;;;12.05;70.95;97857.47;5062282;28;19936;-59
2023/04/12 06:06:36;;;;;;;;;;;;;;;11.97;71.44;97820.25;5053991;28;20430;-60
2023/04/12 06:09:03;;;;;;;;;;;;;;;12.10;71.85;97843.91;5066384;28;19925;-59
2023/04/12 06:11:32;;;;;;;;;;;;;;;12.16;74.14;97845.84;5037869;28;19925;-59
2023/04/12 06:14:00;;;;;;;;;;;;;;;12.29;75.27;97850.50;5064957;28;19929;-60
2023/04/12 06:16:25;;;;;;;;;;;;;;;12.23;74.45;97854.59;5068495;28;20520;-60
2023/04/12 06:18:50;;;;;;;;;;;;;;;12.26;74.62;97851.63;5065218;28;19920;-60
2023/04/12 06:21:17;;;;;;;;;;;;;;;12.30;74.54;97847.72;5066283;28;19920;-60
2023/04/12 06:23:42;;;;;;;;;;;;;;;12.27;75.35;97848.06;5053798;28;19952;-60
2023/04/12 06:26:10;;;;;;;;;;;;;;;12.37;75.53;97847.81;5061581;28;19924;-60
2023/04/12 06:28:35;;;;;;;;;;;;;;;12.28;74.41;97854.06;5049609;28;20264;-59
2023/04/12 06:31:00;;;;;;;;;;;;;;;12.20;70.73;97862.75;5058399;28;20328;-59
2023/04/12 06:33:26;;;;;;;;;;;;;;;12.19;68.85;97862.94;5054314;28;19924;-59
2023/04/12 06:35:51;;;;;;;;;;;;;;;12.13;67.79;97859.22;5046019;28;20039;-59
2023/04/12 06:38:19;;;;;;;;;;;;;;;12.18;65.51;97858.72;5048354;28;20403;-60
2023/04/12 06:40:47;;;;;;;;;;;;;;;12.26;63.97;97861.25;5028416;28;19921;-59
2023/04/12 06:43:13;;;;;;;;;;;;;;;12.37;63.93;97860.03;5055155;28;19916;-60
2023/04/12 06:45:38;;;;;;;;;;;;;;;12.35;63.31;97864.63;5048354;28;19931;-59
2023/04/12 06:48:03;;;;;;;;;;;;;;;12.30;62.48;97862.53;5063831;28;21332;-59
2023/04/12 06:50:31;;;;;;;;;;;;;;;12.38;61.22;97862.47;5098742;28;19923;-59
2023/04/12 06:52:56;;;;;;;;;;;;;;;12.39;60.43;97855.47;5050318;28;19990;-60
2023/04/12 06:55:21;;;;;;;;;;;;;;;12.45;61.09;97844.34;5060514;28;20375;-59
2023/04/12 06:57:47;;;;;;;;;;;;;;;12.44;61.24;97840.91;5064539;28;20023;-60
2023/04/12 07:00:13;;;;;;;;;;;;;;;12.54;63.02;97840.69;5046268;28;19916;-60
2023/04/12 07:02:38;;;;;;;;;;;;;;;12.50;63.59;97840.22;5044343;28;20428;-60
2023/04/12 07:05:04;;;;;;;;;;;;;;;12.42;64.48;97840.28;5059305;28;19928;-60
2023/04/12 07:07:29;;;;;;;;;;;;;;;12.42;63.80;97840.28;5062950;28;20532;-59
2023/04/12 07:09:55;;;;;;;;;;;;;;;12.40;63.38;97833.63;5063490;28;19966;-59
2023/04/12 07:12:23;;;;;;;;;;;;;;;12.40;62.54;97834.44;5067512;28;19920;-59
2023/04/12 07:14:48;;;;;;;;;;;;;;;12.43;62.78;97838.47;5091330;27;19920;-59
2023/04/12 07:17:13;;;;;;;;;;;;;;;12.24;61.72;97831.94;5063435;28;20060;-60
2023/04/12 07:19:39;;;;;;;;;;;;;;;12.25;62.84;97841.41;5067445;28;19934;-59
2023/04/12 07:22:04;;;;;;;;;;;;;;;12.17;62.41;97834.44;5079579;28;19927;-59
2023/04/12 07:24:30;;;;;;;;;;;;;;;12.18;61.64;97832.66;5086609;28;19920;-59
2023/04/12 07:26:55;;;;;;;;;;;;;;;12.05;62.11;97826.22;5057858;28;20489;-60
2023/04/12 07:29:20;;;;;;;;;;;;;;;12.19;62.70;97827.25;5046891;28;19920;-59
2023/04/12 07:31:50;;;;;;;;;;;;;;;12.10;62.32;97825.69;5064035;28;19925;-59
2023/04/12 07:34:16;;;;;;;;;;;;;;;12.13;64.20;97827.94;5030700;28;19924;-59
2023/04/12 07:36:43;;;;;;;;;;;;;;;12.23;64.13;97825.09;5068841;28;20021;-60
2023/04/12 07:39:11;;;;;;;;;;;;;;;12.17;64.09;97825.81;5082347;28;19924;-59
2023/04/12 07:41:36;;;;;;;;;;;;;;;12.01;64.41;97830.16;5043206;28;20395;-59
2023/04/12 07:44:02;;;;;;;;;;;;;;;12.07;64.47;97824.25;5080760;28;19920;-59
2023/04/12 07:46:27;;;;;;;;;;;;;;;12.01;64.87;97818.91;5049815;28;20122;-59
2023/04/12 07:48:52;;;;;;;;;;;;;;;11.99;64.44;97819.09;5022942;28;19968;-59
2023/04/12 07:51:18;;;;;;;;;;;;;;;12.00;64.58;97815.50;5047064;28;19947;-59
2023/04/12 07:53:47;;;;;;;;;;;;;;;12.16;63.93;97824.22;5046612;28;19970;-59
2023/04/12 07:56:13;;;;;;;;;;;;;;;12.21;64.39;97825.31;5027729;28;20409;-59
2023/04/12 07:58:38;;;;;;;;;;;;;;;12.39;63.96;97824.97;5047974;28;19920;-59
2023/04/12 08:01:03;;;;;;;;;;;;;;;12.41;63.12;97845.66;5039852;28;20295;-59
2023/04/12 08:03:30;;;;;;;;;;;;;;;12.54;61.63;97845.06;5035659;28;20138;-59
2023/04/12 08:05:56;;;;;;;;;;;;;;;12.55;61.24;97844.09;5014625;28;19925;-59
2023/04/12 08:08:21;;;;;;;;;;;;;;;12.56;61.71;97841.31;5062229;28;19927;-59
2023/04/12 08:10:47;;;;;;;;;;;;;;;12.53;60.93;97844.28;5044574;28;19925;-60
2023/04/12 08:13:12;;;;;;;;;;;;;;;12.59;60.24;97850.56;5044652;28;19921;-59
2023/04/12 08:15:37;;;;;;;;;;;;;;;12.55;59.96;97844.09;5045704;28;19924;-59
2023/04/12 08:18:03;;;;;;;;;;;;;;;12.59;59.60;97845.34;5021018;28;19921;-59
2023/04/12 08:20:28;;;;;;;;;;;;;;;12.52;59.94;97849.66;5023717;28;20020;-60
2023/04/12 08:22:53;;;;;;;;;;;;;;;12.49;59.86;97851.63;5080696;28;19999;-59
2023/04/12 08:25:21;;;;;;;;;;;;;;;12.56;59.01;97853.53;5041291;28;19916;-59
2023/04/12 08:27:47;;;;;;;;;;;;;;;12.46;58.98;97845.94;5021078;28;19921;-59
2023/04/12 08:30:12;;;;;;;;;;;;;;;12.45;59.59;97845.16;5059583;28;19920;-59
2023/04/12 08:32:38;;;;;;;;;;;;;;;12.64;58.84;97843.03;5063075;28;19928;-60
2023/04/12 08:35:06;;;;;;;;;;;;;;;12.55;58.70;97837.06;5053888;28;20454;-59
2023/04/12 08:37:32;;;;;;;;;;;;;;;12.57;58.48;97839.50;5057911;28;19927;-59
2023/04/12 08:40:07;;;;;;;;;;;;;;;12.58;59.12;97828.09;5046371;28;19920;-60
2023/04/12 08:42:36;;;;;;;;;;;;;;;12.52;59.32;97826.19;5040181;28;20082;-59
2023/04/12 08:45:05;;;;;;;;;;;;;;;12.43;59.34;97834.09;5042976;28;19986;-60
2023/04/12 08:47:31;;;;;;;;;;;;;;;12.42;59.50;97832.47;5044642;28;19925;-59
2023/04/12 08:49:56;;;;;;;;;;;;;;;12.47;59.42;97811.88;5060546;28;19936;-59
2023/04/12 08:52:24;;;;;;;;;;;;;;;12.36;60.09;97822.75;5059012;28;19920;-60
2023/04/12 08:54:49;;;;;;;;;;;;;;;12.37;59.36;97818.31;5060885;28;19927;-59
2023/04/12 08:57:15;;;;;;;;;;;;;;;12.45;58.71;97819.06;5080835;28;20299;-60
2023/04/12 08:59:41;;;;;;;;;;;;;;;12.37;59.45;97823.53;5056669;28;19958;-59
2023/04/12 09:02:08;;;;;;;;;;;;;;;12.25;59.34;97823.16;5066211;28;21390;-60
2023/04/12 09:04:34;;;;;;;;;;;;;;;12.25;59.93;97817.94;5082184;28;19927;-59
2023/04/12 09:07:01;;;;;;;;;;;;;;;12.30;59.62;97820.81;5042449;28;19920;-60
2023/04/12 09:09:43;;;;;;;;;;;;;;;12.24;59.83;97835.34;5064431;28;20019;-59
2023/04/12 09:12:08;;;;;;;;;;;;;;;12.19;59.91;97821.22;5036161;28;19936;-59
2023/04/12 09:14:36;;;;;;;;;;;;;;;12.20;60.34;97823.66;5056794;28;19920;-59
2023/04/12 09:17:01;;;;;;;;;;;;;;;12.27;59.90;97815.97;5080969;28;19924;-59
2023/04/12 09:19:31;;;;;;;;;;;;;;;12.30;59.27;97820.81;5062555;28;19990;-59
2023/04/12 09:21:56;;;;;;;;;;;;;;;12.39;58.98;97817.16;5072229;28;19979;-59
2023/04/12 09:24:24;;;;;;;;;;;;;;;12.38;59.48;97812.94;5061715;28;19924;-59
2023/04/12 09:27:02;;;;;;;;;;;;;;;12.52;59.08;97816.56;5049887;28;19974;-59
2023/04/12 09:29:28;;;;;;;;;;;;;;;12.44;59.32;97814.84;5063986;28;19978;-59
2023/04/12 09:32:03;;;;;;;;;;;;;;;12.53;58.80;97812.19;5037571;28;19928;-59
2023/04/12 09:34:29;;;;;;;;;;;;;;;12.62;58.96;97805.91;5039977;28;19920;-59
2023/04/12 09:36:54;;;;;;;;;;;;;;;12.63;58.94;97805.72;5085214;28;19924;-59
2023/04/12 09:39:20;;;;;;;;;;;;;;;12.63;59.08;97805.72;5037010;28;19921;-60
2023/04/12 09:41:45;;;;;;;;;;;;;;;12.77;57.84;97804.09;5042010;28;20032;-60
2023/04/12 09:44:26;;;;;;;;;;;;;;;12.74;58.46;97799.28;5036029;28;19927;-59
2023/04/12 09:46:51;;;;;;;;;;;;;;;12.83;57.96;97810.41;5046944;28;19924;-60
2023/04/12 09:49:17;;;;;;;;;;;;;;;12.89;58.01;97807.09;5043497;28;20424;-59
2023/04/12 09:51:42;;;;;;;;;;;;;;;12.88;58.15;97805.47;5044316;28;20598;-59
2023/04/12 09:54:07;;;;;;;;;;;;;;;12.82;57.74;97790.53;5048206;28;19928;-60
2023/04/12 09:56:34;;;;;;;;;;;;;;;12.99;57.49;97799.00;5041459;28;20591;-60
2023/04/12 09:59:06;;;;;;;;;;;;;;;12.93;58.15;97802.34;5044083;28;20603;-60
2023/04/12 10:01:35;;;;;;;;;;;;;;;12.93;58.39;97803.13;5055102;28;19928;-59
2023/04/12 10:04:03;;;;;;;;;;;;;;;12.82;58.25;97801.78;5030379;28;19920;-60
2023/04/12 10:06:30;;;;;;;;;;;;;;;12.87;58.69;97798.66;5046883;28;19920;-60
2023/04/12 10:08:57;;;;;;;;;;;;;;;12.99;58.31;97791.97;5044006;28;19921;-59
2023/04/12 10:11:24;;;;;;;;;;;;;;;12.91;58.87;97783.44;5045945;28;20690;-59
2023/04/12 10:13:49;;;;;;;;;;;;;;;12.76;59.89;97788.63;5080417;28;19944;-59
2023/04/12 10:16:15;;;;;;;;;;;;;;;12.65;61.27;97787.28;5047168;28;19920;-60
2023/04/12 10:18:40;;;;;;;;;;;;;;;12.54;60.31;97785.09;5046707;28;20657;-60
2023/04/12 10:21:06;;;;;;;;;;;;;;;12.48;61.66;97789.22;5026665;28;19920;-59
2023/04/12 10:23:31;;;;;;;;;;;;;;;12.49;61.88;97777.81;5029294;28;19948;-59
2023/04/12 10:25:59;;;;;;;;;;;;;;;12.25;63.11;97752.78;5067928;28;19999;-59
2023/04/12 10:28:25;;;;;;;;;;;;;;;12.36;63.74;97775.81;5045797;28;19921;-60
2023/04/12 10:30:53;;;;;;;;;;;;;;;12.24;64.99;97766.78;5041034;28;19924;-59
2023/04/12 10:33:23;;;;;;;;;;;;;;;12.26;65.33;97759.59;5030019;28;20013;-59
2023/04/12 10:36:09;;;;;;;;;;;;;;;12.21;64.04;97756.72;5048592;28;20005;-59
2023/04/12 10:38:47;;;;;;;;;;;;;;;12.37;64.28;97761.78;5051777;28;20001;-59
2023/04/12 10:41:16;;;;;;;;;;;;;;;12.40;65.46;97758.03;5044631;28;19920;-59
2023/04/12 10:43:42;;;;;;;;;;;;;;;12.46;64.72;97759.91;5028059;28;19920;-60
2023/04/12 10:46:07;;;;;;;;;;;;;;;12.43;65.66;97755.88;5017341;28;19964;-59
2023/04/12 10:48:35;;;;;;;;;;;;;;;12.26;69.06;97755.19;5044828;28;19974;-60
2023/04/12 10:51:26;;;;;;;;;;;;;;;12.26;69.36;97749.19;5045945;28;19999;-60
2023/04/12 10:53:51;;;;;;;;;;;;;;;12.32;69.41;97748.50;5062056;28;19920;-60
2023/04/12 10:56:29;;;;;;;;;;;;;;;12.21;73.95;97748.88;5064427;28;19920;-59
2023/04/12 10:58:57;;;;;;;;;;;;;;;12.09;73.67;97754.53;5062732;28;19967;-59
2023/04/12 11:01:23;;;;;;;;;;;;;;;12.07;75.81;97750.47;5031779;28;19916;-60
2023/04/12 11:04:04;;;;;;;;;;;;;;;11.92;75.51;97743.44;5028118;28;20646;-60
2023/04/12 11:07:00;;;;;;;;;;;;;;;11.98;76.05;97746.31;5045565;28;19921;-59
2023/04/12 11:09:29;;;;;;;;;;;;;;;11.97;74.34;97748.09;5048659;28;19974;-59
2023/04/12 11:11:56;;;;;;;;;;;;;;;11.70;76.63;97744.19;5021689;28;19955;-59
2023/04/12 11:14:29;;;;;;;;;;;;;;;11.70;77.15;97746.78;5030747;28;20065;-59
2023/04/12 11:17:09;;;;;;;;;;;;;;;11.66;77.11;97735.94;5047096;28;20357;-60
2023/04/12 11:19:39;;;;;;;;;;;;;;;11.71;74.35;97735.41;5046942;28;20290;-59
2023/04/12 11:22:11;;;;;;;;;;;;;;;11.78;76.29;97732.94;5044955;28;19921;-61
2023/04/12 11:24:40;;;;;;;;;;;;;;;11.74;77.05;97737.66;5041687;28;20482;-61
2023/04/12 11:27:05;;;;;;;;;;;;;;;11.72;77.17;97730.03;5054749;28;19928;-60
2023/04/12 11:29:34;;;;;;;;;;;;;;;11.80;76.92;97730.97;5028414;28;19921;-60
2023/04/12 11:32:01;;;;;;;;;;;;;;;11.60;77.25;97723.59;5059647;28;21143;-61
2023/04/12 11:34:33;;;;;;;;;;;;;;;11.60;78.41;97712.38;5045111;28;19934;-61
2023/04/12 11:36:59;;;;;;;;;;;;;;;11.76;78.53;97714.06;5026316;28;19916;-59
2023/04/12 11:39:25;;;;;;;;;;;;;;;11.79;76.02;97716.31;5061091;28;19928;-59
2023/04/12 11:41:52;;;;;;;;;;;;;;;11.92;76.17;97708.75;5045900;28;19917;-59
2023/04/12 11:44:20;;;;;;;;;;;;;;;11.73;79.42;97710.78;5071087;28;20393;-60
2023/04/12 11:46:45;;;;;;;;;;;;;;;11.95;79.04;97716.19;5064403;28;19963;-58
2023/04/12 11:49:15;;;;;;;;;;;;;;;11.98;78.22;97712.47;5040958;28;19964;-59
2023/04/12 11:51:41;;;;;;;;;;;;;;;11.93;76.99;97708.56;5040498;28;20354;-58
2023/04/12 11:54:06;;;;;;;;;;;;;;;11.92;77.92;97706.16;5033308;28;19928;-58
2023/04/12 11:56:31;;;;;;;;;;;;;;;12.04;77.27;97704.72;5062982;28;20272;-58
2023/04/12 11:58:57;;;;;;;;;;;;;;;11.86;76.64;97704.19;5045981;28;19928;-59
2023/04/12 12:01:22;;;;;;;;;;;;;;;11.69;78.07;97706.13;5060762;28;19927;-59
2023/04/12 12:03:48;;;;;;;;;;;;;;;11.57;81.09;97702.31;5042947;28;19928;-58
2023/04/12 12:06:13;;;;;;;;;;;;;;;11.63;79.74;97699.81;5012342;28;19916;-59
2023/04/12 12:08:38;;;;;;;;;;;;;;;11.60;82.18;97697.56;5047461;28;20722;-59
2023/04/12 12:11:04;;;;;;;;;;;;;;;11.72;82.57;97703.19;5062206;28;19920;-58
2023/04/12 12:13:49;;;;;;;;;;;;;;;11.69;80.26;97699.13;5044624;28;19927;-58
2023/04/12 12:16:14;;;;;;;;;;;;;;;11.82;78.17;97702.94;5043608;28;19952;-59
2023/04/12 12:18:43;;;;;;;;;;;;;;;11.98;77.00;97702.84;5042626;28;19971;-58
2023/04/12 12:21:12;;;;;;;;;;;;;;;12.16;74.43;97699.91;5043875;28;19917;-59
2023/04/12 12:23:40;;;;;;;;;;;;;;;12.25;77.22;97692.84;5057451;28;19925;-59
2023/04/12 12:26:06;;;;;;;;;;;;;;;12.17;76.13;97690.28;5041397;28;19920;-59
2023/04/12 12:28:38;;;;;;;;;;;;;;;12.17;75.14;97688.50;5043032;28;19971;-59
2023/04/12 12:31:06;;;;;;;;;;;;;;;12.18;73.89;97690.13;5032192;28;19920;-58
2023/04/12 12:33:36;;;;;;;;;;;;;;;12.40;76.43;97685.03;5058112;28;19920;-59
2023/04/12 12:36:01;;;;;;;;;;;;;;;12.48;75.77;97690.97;5043468;28;20390;-58
2023/04/12 12:38:36;;;;;;;;;;;;;;;12.60;75.14;97690.53;5043294;28;19921;-59
2023/04/12 12:41:13;;;;;;;;;;;;;;;12.52;72.37;97691.41;5054063;28;20058;-59
2023/04/12 12:43:43;;;;;;;;;;;;;;;12.48;75.35;97684.94;5061809;28;20366;-59
2023/04/12 12:46:08;;;;;;;;;;;;;;;12.37;75.24;97693.19;5054129;28;19956;-59